createdAt,value
2023-09-09T00:01:23.513Z,101533.75
2023-09-09T00:03:57.301Z,101539.03
2023-09-09T00:06:30.255Z,101535.59
2023-09-09T00:09:05.639Z,101541.50
2023-09-09T00:11:40.621Z,101540.06
2023-09-09T00:14:13.428Z,101538.97
2023-09-09T00:16:46.269Z,101537.81
2023-09-09T00:19:23.000Z,101550.50
2023-09-09T00:21:56.372Z,101547.94
2023-09-09T00:24:29.275Z,101540.75
2023-09-09T00:27:03.529Z,101541.03
2023-09-09T00:29:36.506Z,101533.66
2023-09-09T00:32:09.640Z,101534.69
2023-09-09T00:34:42.600Z,101536.25
2023-09-09T00:37:15.140Z,101542.00
2023-09-09T00:39:47.955Z,101538.41
2023-09-09T00:42:22.356Z,101537.75
2023-09-09T00:44:55.217Z,101536.97
2023-09-09T00:47:28.720Z,101534.00
2023-09-09T00:50:01.948Z,101530.25
2023-09-09T00:52:35.384Z,101528.19
2023-09-09T00:55:09.852Z,101524.94
2023-09-09T00:57:43.982Z,101531.16
2023-09-09T01:00:18.248Z,101530.97
2023-09-09T01:02:51.461Z,101536.00
2023-09-09T01:05:24.743Z,101536.56
2023-09-09T01:08:25.782Z,101527.06
2023-09-09T01:10:59.423Z,101529.50
2023-09-09T01:13:36.164Z,101528.97
2023-09-09T01:16:09.931Z,101528.84
2023-09-09T01:18:42.818Z,101521.94
2023-09-09T01:21:17.863Z,101524.72
2023-09-09T01:23:52.160Z,101531.34
2023-09-09T01:26:25.013Z,101525.38
2023-09-09T01:28:58.605Z,101528.84
2023-09-09T01:31:31.327Z,101522.56
2023-09-09T01:34:04.244Z,101520.22
2023-09-09T01:36:37.165Z,101520.69
2023-09-09T01:39:11.493Z,101518.81
2023-09-09T01:41:44.409Z,101520.59
2023-09-09T01:44:19.958Z,101521.84
2023-09-09T01:46:52.769Z,101518.91
2023-09-09T01:49:25.629Z,101520.72
2023-09-09T01:51:58.946Z,101527.34
2023-09-09T01:54:33.479Z,101519.28
2023-09-09T01:57:07.024Z,101520.50
2023-09-09T01:59:40.796Z,101525.00
2023-09-09T02:02:17.120Z,101520.16
2023-09-09T02:04:50.829Z,101517.91
2023-09-09T02:07:23.778Z,101526.91
2023-09-09T02:09:58.633Z,101519.41
2023-09-09T02:12:32.593Z,101523.75
2023-09-09T02:15:06.833Z,101517.28
2023-09-09T02:17:39.635Z,101516.03
2023-09-09T02:20:12.502Z,101516.59
2023-09-09T02:22:45.293Z,101515.81
2023-09-09T02:25:20.387Z,101514.22
2023-09-09T02:27:53.344Z,101500.88
2023-09-09T02:30:25.974Z,101508.50
2023-09-09T02:32:59.180Z,101506.72
2023-09-09T02:35:34.786Z,101508.28
2023-09-09T02:38:07.641Z,101510.22
2023-09-09T02:40:41.798Z,101507.50
2023-09-09T02:43:14.576Z,101514.13
2023-09-09T02:45:47.716Z,101512.09
2023-09-09T02:48:20.586Z,101504.03
2023-09-09T02:50:53.214Z,101505.84
2023-09-09T02:53:26.188Z,101506.75
2023-09-09T02:56:00.498Z,101509.41
2023-09-09T02:58:36.267Z,101510.19
2023-09-09T03:01:09.378Z,101510.53
2023-09-09T03:03:43.106Z,101510.31
2023-09-09T03:06:16.259Z,101505.72
2023-09-09T03:08:49.111Z,101505.91
2023-09-09T03:11:23.183Z,101505.31
2023-09-09T03:13:56.062Z,101507.59
2023-09-09T03:16:29.068Z,101507.25
2023-09-09T03:19:10.997Z,101506.22
2023-09-09T03:21:43.971Z,101499.94
2023-09-09T03:24:16.861Z,101505.53
2023-09-09T03:26:51.453Z,101500.34
2023-09-09T03:29:25.223Z,101500.78
2023-09-09T03:31:58.892Z,101504.56
2023-09-09T03:34:31.563Z,101502.09
2023-09-09T03:37:04.537Z,101502.69
2023-09-09T03:39:37.943Z,101498.28
2023-09-09T03:42:12.419Z,101494.69
2023-09-09T03:44:45.681Z,101496.78
2023-09-09T03:47:19.401Z,101497.22
2023-09-09T03:49:54.536Z,101505.97
2023-09-09T03:52:27.374Z,101506.25
2023-09-09T03:55:00.103Z,101508.63
2023-09-09T03:57:34.490Z,101508.88
2023-09-09T04:00:13.114Z,101507.28
2023-09-09T04:02:48.022Z,101514.66
2023-09-09T04:05:21.377Z,101511.22
2023-09-09T04:07:54.106Z,101520.94
2023-09-09T04:10:27.426Z,101514.41
2023-09-09T04:13:01.549Z,101517.78
2023-09-09T04:15:34.352Z,101518.13
2023-09-09T04:18:07.140Z,101517.78
2023-09-09T04:20:40.345Z,101516.13
2023-09-09T04:23:13.150Z,101516.22
2023-09-09T04:25:46.386Z,101513.06
2023-09-09T04:28:20.970Z,101506.88
2023-09-09T04:30:54.359Z,101511.59
2023-09-09T04:33:27.434Z,101511.16
2023-09-09T04:36:00.546Z,101511.50
2023-09-09T04:38:33.770Z,101522.38
2023-09-09T04:41:06.680Z,101518.19
2023-09-09T04:43:41.394Z,101525.50
2023-09-09T04:46:14.697Z,101524.00
2023-09-09T04:48:53.535Z,101526.75
2023-09-09T04:51:26.447Z,101525.06
2023-09-09T04:53:59.356Z,101522.56
2023-09-09T04:56:32.792Z,101521.34
2023-09-09T04:59:07.226Z,101519.16
2023-09-09T05:01:40.225Z,101527.94
2023-09-09T05:04:13.364Z,101530.75
2023-09-09T05:06:46.405Z,101535.47
2023-09-09T05:09:19.382Z,101536.50
2023-09-09T05:11:52.480Z,101537.72
2023-09-09T05:14:26.592Z,101533.19
2023-09-09T05:16:59.608Z,101534.09
2023-09-09T05:19:32.849Z,101534.31
2023-09-09T05:22:05.906Z,101527.09
2023-09-09T05:24:39.411Z,101529.50
2023-09-09T05:27:12.233Z,101530.41
2023-09-09T05:29:46.465Z,101527.94
2023-09-09T05:32:19.841Z,101526.47
2023-09-09T05:34:53.136Z,101527.25
2023-09-09T05:37:27.607Z,101528.84
2023-09-09T05:40:04.033Z,101528.84
2023-09-09T05:42:38.445Z,101533.69
2023-09-09T05:45:13.340Z,101528.13
2023-09-09T05:47:47.556Z,101530.41
2023-09-09T05:50:20.544Z,101530.91
2023-09-09T05:52:55.504Z,101527.78
2023-09-09T05:55:31.483Z,101524.28
2023-09-09T05:58:05.278Z,101528.84
2023-09-09T06:00:39.560Z,101532.47
2023-09-09T06:03:12.407Z,101533.53
2023-09-09T06:05:45.586Z,101531.69
2023-09-09T06:08:19.095Z,101539.63
2023-09-09T06:10:51.925Z,101541.75
2023-09-09T06:13:25.006Z,101547.16
2023-09-09T06:15:59.465Z,101543.47
2023-09-09T06:18:33.821Z,101548.72
2023-09-09T06:21:06.630Z,101556.91
2023-09-09T06:23:39.548Z,101552.75
2023-09-09T06:26:12.717Z,101561.47
2023-09-09T06:28:45.970Z,101555.88
2023-09-09T06:31:20.640Z,101565.69
2023-09-09T06:33:53.563Z,101565.25
2023-09-09T06:36:26.466Z,101565.16
2023-09-09T06:38:59.980Z,101561.06
2023-09-09T06:41:33.091Z,101566.72
2023-09-09T06:44:06.838Z,101570.41
2023-09-09T06:46:41.916Z,101569.97
2023-09-09T06:49:14.881Z,101570.94
2023-09-09T06:51:49.042Z,101571.47
2023-09-09T06:54:21.858Z,101567.69
2023-09-09T06:56:54.604Z,101576.69
2023-09-09T06:59:27.812Z,101573.38
2023-09-09T07:02:03.228Z,101570.25
2023-09-09T07:04:37.101Z,101580.66
2023-09-09T07:07:13.421Z,101576.44
2023-09-09T07:09:48.016Z,101583.53
2023-09-09T07:12:21.058Z,101587.34
2023-09-09T07:14:53.945Z,101582.13
2023-09-09T07:17:27.935Z,101586.16
2023-09-09T07:20:00.818Z,101581.16
2023-09-09T07:22:33.475Z,101588.94
2023-09-09T07:25:08.385Z,101597.66
2023-09-09T07:27:41.696Z,101586.56
2023-09-09T07:30:14.714Z,101586.09
2023-09-09T07:32:49.596Z,101589.72
2023-09-09T07:35:22.756Z,101590.03
2023-09-09T07:37:55.678Z,101598.38
2023-09-09T07:40:28.574Z,101596.41
2023-09-09T07:43:01.900Z,101597.06
2023-09-09T07:45:34.658Z,101596.63
2023-09-09T07:48:09.119Z,101596.88
2023-09-09T07:50:42.083Z,101597.00
2023-09-09T07:53:17.609Z,101598.34
2023-09-09T07:55:50.780Z,101593.19
2023-09-09T07:58:23.909Z,101604.38
2023-09-09T08:01:00.472Z,101595.09
2023-09-09T08:03:40.639Z,101589.56
2023-09-09T08:06:15.319Z,101606.94
2023-09-09T08:08:51.498Z,101597.81
2023-09-09T08:11:24.342Z,101593.28
2023-09-09T08:13:57.091Z,101602.75
2023-09-09T08:16:33.719Z,101599.22
2023-09-09T08:19:08.772Z,101601.09
2023-09-09T08:21:41.600Z,101602.63
2023-09-09T08:24:14.354Z,101614.34
2023-09-09T08:26:48.202Z,101614.47
2023-09-09T08:29:21.081Z,101616.59
2023-09-09T08:31:54.292Z,101614.09
2023-09-09T08:34:28.452Z,101622.94
2023-09-09T08:37:01.783Z,101622.03
2023-09-09T08:39:37.080Z,101614.34
2023-09-09T08:42:18.609Z,101616.72
2023-09-09T08:45:03.484Z,101621.41
2023-09-09T08:47:38.448Z,101619.94
2023-09-09T08:50:17.994Z,101627.00
2023-09-09T08:52:54.127Z,101621.50
2023-09-09T08:55:27.576Z,101629.72
2023-09-09T08:58:01.043Z,101628.78
2023-09-09T09:00:36.051Z,101628.09
2023-09-09T09:03:11.262Z,101629.97
2023-09-09T09:05:46.890Z,101635.00
2023-09-09T09:08:19.920Z,101645.75
2023-09-09T09:10:52.705Z,101641.47
2023-09-09T09:13:25.956Z,101638.00
2023-09-09T09:15:59.121Z,101641.47
2023-09-09T09:18:32.608Z,101644.09
2023-09-09T09:21:11.401Z,101644.84
2023-09-09T09:23:45.534Z,101649.13
2023-09-09T09:26:25.937Z,101646.50
2023-09-09T09:28:59.100Z,101650.84
2023-09-09T09:31:31.958Z,101650.41
2023-09-09T09:34:04.941Z,101649.56
2023-09-09T09:36:39.125Z,101643.59
2023-09-09T09:39:12.027Z,101647.81
2023-09-09T09:41:45.345Z,101647.84
2023-09-09T09:44:20.676Z,101649.25
2023-09-09T09:47:07.437Z,101648.44
2023-09-09T09:49:42.027Z,101643.81
2023-09-09T09:52:25.416Z,101647.56
2023-09-09T09:54:58.388Z,101642.28
2023-09-09T09:57:31.976Z,101640.38
2023-09-09T10:00:09.009Z,101643.63
2023-09-09T10:02:48.032Z,101643.34
2023-09-09T10:05:23.532Z,101643.13
2023-09-09T10:08:05.915Z,101638.22
2023-09-09T10:10:44.211Z,101640.31
2023-09-09T10:13:25.202Z,101642.16
2023-09-09T10:15:59.744Z,101646.84
2023-09-09T10:18:34.445Z,101637.34
2023-09-09T10:21:10.695Z,101645.91
2023-09-09T10:23:47.887Z,101638.16
2023-09-09T10:26:22.028Z,101638.94
2023-09-09T10:28:55.966Z,101636.88
2023-09-09T10:31:30.145Z,101637.16
2023-09-09T10:34:03.852Z,101642.56
2023-09-09T10:36:50.822Z,101630.19
2023-09-09T10:39:41.479Z,101628.84
2023-09-09T10:42:14.570Z,101633.00
2023-09-09T10:44:50.248Z,101631.16
2023-09-09T10:47:23.616Z,101626.25
2023-09-09T10:50:06.590Z,101631.34
2023-09-09T10:52:39.713Z,101630.53
2023-09-09T10:55:14.624Z,101628.94
2023-09-09T10:57:58.651Z,101639.31
2023-09-09T11:00:39.150Z,101637.16
2023-09-09T11:03:13.264Z,101629.56
2023-09-09T11:06:03.793Z,101630.59
2023-09-09T11:08:45.457Z,101635.16
2023-09-09T11:11:25.827Z,101627.34
2023-09-09T11:14:04.532Z,101625.69
2023-09-09T11:16:39.162Z,101629.03
2023-09-09T11:19:13.498Z,101628.16
2023-09-09T11:21:47.679Z,101622.34
2023-09-09T11:24:21.523Z,101624.16
2023-09-09T11:26:57.608Z,101620.34
2023-09-09T11:29:37.375Z,101621.56
2023-09-09T11:32:25.358Z,101615.25
2023-09-09T11:34:59.385Z,101613.59
2023-09-09T11:37:32.676Z,101607.03
2023-09-09T11:40:06.633Z,101607.13
2023-09-09T11:42:53.420Z,101609.06
2023-09-09T11:45:26.272Z,101616.41
2023-09-09T11:47:59.406Z,101612.50
2023-09-09T11:50:40.648Z,101607.81
2023-09-09T11:53:14.267Z,101616.69
2023-09-09T11:55:47.437Z,101608.91
2023-09-09T11:58:21.597Z,101611.59
2023-09-09T12:01:01.795Z,101613.09
2023-09-09T12:03:35.209Z,101610.13
2023-09-09T12:06:10.266Z,101603.66
2023-09-09T12:08:43.934Z,101607.13
2023-09-09T12:11:18.836Z,101606.25
2023-09-09T12:13:53.301Z,101607.50
2023-09-09T12:16:26.217Z,101603.06
2023-09-09T12:18:59.350Z,101598.47
2023-09-09T12:21:33.142Z,101602.69
2023-09-09T12:24:07.172Z,101604.09
2023-09-09T12:26:40.638Z,101603.81
2023-09-09T12:29:14.941Z,101599.84
2023-09-09T12:31:53.971Z,101601.91
2023-09-09T12:34:28.729Z,101604.94
2023-09-09T12:37:02.038Z,101604.03
2023-09-09T12:39:34.857Z,101602.41
2023-09-09T12:42:08.978Z,101610.13
2023-09-09T12:44:54.200Z,101608.91
2023-09-09T12:47:27.658Z,101607.00
2023-09-09T12:50:00.568Z,101604.00
2023-09-09T12:52:33.785Z,101594.50
2023-09-09T12:55:06.740Z,101601.66
2023-09-09T12:57:39.473Z,101601.03
2023-09-09T13:00:14.970Z,101598.13
2023-09-09T13:02:48.050Z,101595.97
2023-09-09T13:05:21.510Z,101599.53
2023-09-09T13:07:54.651Z,101608.44
2023-09-09T13:10:27.568Z,101598.63
2023-09-09T13:13:00.298Z,101599.28
2023-09-09T13:15:34.774Z,101598.38
2023-09-09T13:18:06.710Z,101608.03
2023-09-09T13:20:39.490Z,101600.41
2023-09-09T13:23:12.254Z,101597.09
2023-09-09T13:25:45.144Z,101593.09
2023-09-09T13:28:18.198Z,101592.03
2023-09-09T13:30:52.215Z,101577.91
2023-09-09T13:33:25.094Z,101589.47
2023-09-09T13:35:57.822Z,101576.66
2023-09-09T13:38:30.616Z,101575.19
2023-09-09T13:41:04.424Z,101581.31
2023-09-09T13:43:37.679Z,101581.31
2023-09-09T13:46:12.384Z,101581.66
2023-09-09T13:48:45.142Z,101578.22
2023-09-09T13:51:17.887Z,101577.38
2023-09-09T13:53:51.012Z,101580.94
2023-09-09T13:56:23.926Z,101577.00
2023-09-09T13:58:57.911Z,101578.03
2023-09-09T14:01:32.378Z,101575.06
2023-09-09T14:04:05.794Z,101561.28
2023-09-09T14:06:38.620Z,101566.16
2023-09-09T14:09:11.568Z,101569.88
2023-09-09T14:11:44.446Z,101569.69
2023-09-09T14:14:18.461Z,101566.19
2023-09-09T14:16:56.251Z,101571.41
2023-09-09T14:19:29.723Z,101566.78
2023-09-09T14:22:02.779Z,101567.00
2023-09-09T14:24:35.899Z,101553.50
2023-09-09T14:27:10.004Z,101554.38
2023-09-09T14:29:46.508Z,101553.13
2023-09-09T14:32:20.654Z,101555.84
2023-09-09T14:34:53.414Z,101559.41
2023-09-09T14:37:26.439Z,101558.94
2023-09-09T14:39:59.240Z,101558.53
2023-09-09T14:42:32.076Z,101555.00
2023-09-09T14:45:05.855Z,101561.75
2023-09-09T14:47:39.995Z,101561.69
2023-09-09T14:50:13.106Z,101563.69
2023-09-09T14:52:45.958Z,101563.38
2023-09-09T14:55:20.208Z,101567.81
2023-09-09T14:57:52.945Z,101557.63
2023-09-09T15:00:25.627Z,101557.16
2023-09-09T15:02:59.712Z,101562.34
2023-09-09T15:05:33.054Z,101550.09
2023-09-09T15:08:06.628Z,101544.31
2023-09-09T15:10:39.411Z,101555.31
2023-09-09T15:13:12.067Z,101548.81
2023-09-09T15:15:45.329Z,101556.31
2023-09-09T15:18:20.137Z,101557.78
2023-09-09T15:20:53.137Z,101553.84
2023-09-09T15:23:25.967Z,101555.41
2023-09-09T15:25:59.498Z,101554.28
2023-09-09T15:28:33.133Z,101553.44
2023-09-09T15:31:06.703Z,101551.44
2023-09-09T15:33:41.131Z,101548.69
2023-09-09T15:36:14.391Z,101550.31
2023-09-09T15:38:47.670Z,101547.72
2023-09-09T15:41:22.352Z,101545.22
2023-09-09T15:43:55.247Z,101540.47
2023-09-09T15:46:28.183Z,101541.75
2023-09-09T15:49:02.348Z,101539.25
2023-09-09T15:51:35.327Z,101537.56
2023-09-09T15:54:08.344Z,101537.31
2023-09-09T15:56:41.118Z,101534.56
2023-09-09T15:59:14.091Z,101531.16
2023-09-09T16:01:46.883Z,101524.00
2023-09-09T16:04:21.156Z,101525.66
2023-09-09T16:06:53.863Z,101531.97
2023-09-09T16:09:26.786Z,101524.03
2023-09-09T16:11:59.860Z,101539.84
2023-09-09T16:14:32.600Z,101532.16
2023-09-09T16:17:05.777Z,101535.28
2023-09-09T16:19:40.081Z,101532.47
2023-09-09T16:22:12.836Z,101529.63
2023-09-09T16:24:45.564Z,101534.63
2023-09-09T16:27:18.343Z,101533.53
2023-09-09T16:29:51.039Z,101538.50
2023-09-09T16:32:24.155Z,101529.22
2023-09-09T16:34:59.882Z,101531.56
2023-09-09T16:37:35.026Z,101524.84
2023-09-09T16:40:09.618Z,101541.16
2023-09-09T16:42:43.277Z,101535.47
2023-09-09T16:45:18.920Z,101539.06
2023-09-09T16:47:52.338Z,101543.50
2023-09-09T16:50:26.489Z,101537.78
2023-09-09T16:52:59.653Z,101543.22
2023-09-09T16:55:32.872Z,101543.22
2023-09-09T16:58:05.664Z,101539.63
2023-09-09T17:00:38.429Z,101544.53
2023-09-09T17:03:11.441Z,101547.31
2023-09-09T17:05:47.239Z,101546.78
2023-09-09T17:08:21.307Z,101541.59
2023-09-09T17:10:53.953Z,101539.25
2023-09-09T17:13:26.927Z,101547.44
2023-09-09T17:16:00.251Z,101552.63
2023-09-09T17:18:33.128Z,101556.69
2023-09-09T17:21:11.319Z,101556.69
2023-09-09T17:23:44.463Z,101551.50
2023-09-09T17:26:17.658Z,101555.09
2023-09-09T17:28:50.573Z,101549.94
2023-09-09T17:31:23.792Z,101544.25
2023-09-09T17:33:56.935Z,101549.09
2023-09-09T17:36:31.990Z,101543.59
2023-09-09T17:39:08.174Z,101536.59
2023-09-09T17:41:41.080Z,101534.75
2023-09-09T17:44:14.122Z,101544.22
2023-09-09T17:46:47.026Z,101544.47
2023-09-09T17:49:23.222Z,101549.03
2023-09-09T17:51:57.565Z,101551.88
2023-09-09T17:54:30.336Z,101560.50
2023-09-09T17:57:03.347Z,101553.81
2023-09-09T17:59:35.983Z,101556.91
2023-09-09T18:02:09.697Z,101547.41
2023-09-09T18:04:42.832Z,101551.50
2023-09-09T18:07:21.097Z,101550.19
2023-09-09T18:09:56.622Z,101553.41
2023-09-09T18:12:29.522Z,101555.22
2023-09-09T18:15:02.426Z,101554.09
2023-09-09T18:17:35.428Z,101558.56
2023-09-09T18:20:09.228Z,101559.50
2023-09-09T18:22:43.412Z,101566.13
2023-09-09T18:25:16.560Z,101563.78
2023-09-09T18:27:49.637Z,101557.59
2023-09-09T18:30:24.594Z,101563.75
2023-09-09T18:32:57.549Z,101559.03
2023-09-09T18:35:30.283Z,101565.41
2023-09-09T18:38:06.043Z,101566.69
2023-09-09T18:40:39.164Z,101576.22
2023-09-09T18:43:12.428Z,101573.34
2023-09-09T18:45:46.252Z,101571.44
2023-09-09T18:48:19.704Z,101571.97
2023-09-09T18:50:52.520Z,101576.47
2023-09-09T18:53:27.708Z,101575.13
2023-09-09T18:56:02.203Z,101570.56
2023-09-09T18:58:35.105Z,101570.34
2023-09-09T19:01:09.872Z,101574.53
2023-09-09T19:03:42.853Z,101583.81
2023-09-09T19:06:15.742Z,101578.59
2023-09-09T19:08:50.235Z,101584.38
2023-09-09T19:11:23.558Z,101584.38
2023-09-09T19:13:56.782Z,101587.13
2023-09-09T19:16:30.030Z,101576.28
2023-09-09T19:19:02.903Z,101578.19
2023-09-09T19:21:35.924Z,101589.53
2023-09-09T19:24:10.715Z,101585.34
2023-09-09T19:26:43.622Z,101582.16
2023-09-09T19:29:16.641Z,101590.56
2023-09-09T19:31:50.371Z,101588.25
2023-09-09T19:34:24.265Z,101592.53
2023-09-09T19:36:57.099Z,101588.44
2023-09-09T19:39:31.221Z,101585.50
2023-09-09T19:42:04.852Z,101603.66
2023-09-09T19:44:38.033Z,101593.53
2023-09-09T19:47:10.777Z,101601.66
2023-09-09T19:49:43.428Z,101593.34
2023-09-09T19:52:16.991Z,101597.34
2023-09-09T19:54:51.151Z,101595.22
2023-09-09T19:57:23.862Z,101592.38
2023-09-09T19:59:56.431Z,101599.53
2023-09-09T20:02:29.566Z,101598.44
2023-09-09T20:05:02.626Z,101600.88
2023-09-09T20:07:35.950Z,101590.91
2023-09-09T20:10:12.868Z,101604.44
2023-09-09T20:12:46.271Z,101600.00
2023-09-09T20:15:19.477Z,101610.03
2023-09-09T20:17:52.590Z,101604.56
2023-09-09T20:20:25.707Z,101612.84
2023-09-09T20:22:58.674Z,101609.91
2023-09-09T20:25:33.146Z,101608.06
2023-09-09T20:28:06.935Z,101599.66
2023-09-09T20:30:40.676Z,101612.44
2023-09-09T20:33:15.533Z,101608.19
2023-09-09T20:35:50.987Z,101616.31
2023-09-09T20:38:24.143Z,101610.66
2023-09-09T20:40:58.568Z,101610.38
2023-09-09T20:43:31.555Z,101611.03
2023-09-09T20:46:10.110Z,101613.84
2023-09-09T20:48:43.592Z,101612.94
2023-09-09T20:51:17.542Z,101611.38
2023-09-09T20:53:50.600Z,101611.75
2023-09-09T20:56:25.086Z,101608.91
2023-09-09T20:58:58.100Z,101614.94
2023-09-09T21:01:35.390Z,101604.28
2023-09-09T21:04:08.377Z,101607.59
2023-09-09T21:06:41.602Z,101604.19
2023-09-09T21:09:14.441Z,101602.31
2023-09-09T21:11:49.209Z,101609.09
2023-09-09T21:14:23.481Z,101603.81
2023-09-09T21:16:57.236Z,101605.13
2023-09-09T21:19:30.388Z,101598.53
2023-09-09T21:22:03.622Z,101606.69
2023-09-09T21:24:36.692Z,101604.69
2023-09-09T21:27:11.414Z,101613.22
2023-09-09T21:29:44.426Z,101613.78
2023-09-09T21:32:17.870Z,101613.16
2023-09-09T21:34:52.215Z,101608.94
2023-09-09T21:37:25.351Z,101613.72
2023-09-09T21:39:58.275Z,101609.94
2023-09-09T21:42:32.808Z,101614.69
2023-09-09T21:45:06.783Z,101605.94
2023-09-09T21:47:40.017Z,101610.16
2023-09-09T21:50:14.100Z,101602.97
2023-09-09T21:52:47.767Z,101604.06
2023-09-09T21:55:20.679Z,101608.31
2023-09-09T21:57:54.767Z,101609.28
2023-09-09T22:00:27.643Z,101601.75
2023-09-09T22:03:00.718Z,101603.34
2023-09-09T22:05:33.706Z,101601.44
2023-09-09T22:08:07.395Z,101608.03
2023-09-09T22:10:40.332Z,101604.09
2023-09-09T22:13:14.607Z,101603.34
2023-09-09T22:15:48.180Z,101607.25
2023-09-09T22:18:21.297Z,101607.28
2023-09-09T22:20:54.637Z,101609.66
2023-09-09T22:23:27.597Z,101607.00
2023-09-09T22:26:00.662Z,101613.75
2023-09-09T22:28:36.106Z,101605.59
2023-09-09T22:31:09.134Z,101604.97
2023-09-09T22:33:42.179Z,101605.44
2023-09-09T22:36:14.902Z,101600.75
2023-09-09T22:38:49.038Z,101602.16
2023-09-09T22:41:22.129Z,101605.31
2023-09-09T22:43:56.569Z,101600.94
2023-09-09T22:46:29.757Z,101598.56
2023-09-09T22:49:04.481Z,101601.06
2023-09-09T22:51:37.803Z,101597.31
2023-09-09T22:54:10.491Z,101600.75
2023-09-09T22:56:43.430Z,101605.75
2023-09-09T22:59:18.139Z,101602.94
2023-09-09T23:01:51.038Z,101597.94
2023-09-09T23:04:24.277Z,101599.19
2023-09-09T23:06:57.207Z,101601.53
2023-09-09T23:09:29.883Z,101603.25
2023-09-09T23:12:03.042Z,101598.09
2023-09-09T23:14:37.724Z,101604.19
2023-09-09T23:17:11.034Z,101608.88
2023-09-09T23:19:43.872Z,101601.69
2023-09-09T23:22:16.755Z,101598.56
2023-09-09T23:24:49.682Z,101602.94
2023-09-09T23:27:23.561Z,101600.72
2023-09-09T23:29:58.635Z,101597.78
2023-09-09T23:32:31.964Z,101607.94
2023-09-09T23:35:05.443Z,101606.97
2023-09-09T23:37:38.803Z,101604.75
2023-09-09T23:40:12.788Z,101599.47
2023-09-09T23:42:45.968Z,101600.69
2023-09-09T23:45:20.815Z,101604.28
2023-09-09T23:47:54.973Z,101611.94
2023-09-09T23:50:27.929Z,101613.22
2023-09-09T23:53:02.996Z,101609.63
2023-09-09T23:55:36.081Z,101611.00
2023-09-09T23:58:09.029Z,101608.78
